Time;durP1;ratioP1;P1;durP2;ratioP2;P2;SDS_P1;SDS_P2;PMS_P1;PMS_P2;Temp;Humidity;BMP_temperature;BMP_pressure;BME280_temperature;BME280_humidity;BME280_pressure;Samples;Min_cycle;Max_cycle;Signal;HPM_P1;HPM_P2
2022/08/11 00:02:31;;;;;;;11.63;4.97;;;;;;;;;;6187006;28;20022;-78
2022/08/11 00:05:32;;;;;;;11.15;4.50;;;;;;;;;;6205270;28;20780;-78
2022/08/11 00:08:33;;;;;;;11.90;5.00;;;;;;;;;;6189305;28;20042;-77
2022/08/11 00:11:38;;;;;;;11.10;5.55;;;;;;;;;;6187670;28;20026;-78
2022/08/11 00:14:38;;;;;;;9.48;4.15;;;;;;;;;;6195763;28;20434;-78
2022/08/11 00:17:38;;;;;;;8.65;4.32;;;;;;;;;;6189059;28;20018;-78
2022/08/11 00:20:42;;;;;;;10.00;4.57;;;;;;;;;;6183263;28;20014;-78
2022/08/11 00:23:51;;;;;;;13.60;4.55;;;;;;;;;;6194091;28;20057;-78
2022/08/11 00:26:53;;;;;;;14.23;4.72;;;;;;;;;;6196109;28;20513;-78
2022/08/11 00:29:53;;;;;;;13.85;4.72;;;;;;;;;;6191717;28;20034;-77
2022/08/11 00:32:55;;;;;;;9.43;4.20;;;;;;;;;;6195255;28;20025;-77
2022/08/11 00:35:57;;;;;;;8.95;4.68;;;;;;;;;;6192187;28;20481;-78
2022/08/11 00:39:02;;;;;;;13.73;4.68;;;;;;;;;;6190910;28;20046;-77
2022/08/11 00:42:08;;;;;;;8.63;4.78;;;;;;;;;;6192478;28;20026;-78
2022/08/11 00:45:15;;;;;;;14.18;6.38;;;;;;;;;;6197532;28;20101;-78
2022/08/11 00:48:26;;;;;;;11.80;6.00;;;;;;;;;;6190762;28;20034;-78
2022/08/11 00:51:39;;;;;;;12.43;4.32;;;;;;;;;;6180552;28;20025;-77
2022/08/11 00:54:59;;;;;;;11.02;4.97;;;;;;;;;;6178876;28;20481;-78
2022/08/11 00:58:26;;;;;;;14.15;5.88;;;;;;;;;;6192871;28;20049;-77
2022/08/11 01:01:42;;;;;;;7.80;4.05;;;;;;;;;;6196528;28;20014;-78
2022/08/11 01:05:01;;;;;;;9.57;4.55;;;;;;;;;;6184816;28;20053;-78
2022/08/11 01:08:19;;;;;;;10.23;4.25;;;;;;;;;;6179625;28;20073;-78
2022/08/11 01:11:22;;;;;;;9.70;4.35;;;;;;;;;;6182267;28;20047;-77
2022/08/11 01:14:34;;;;;;;8.70;4.82;;;;;;;;;;6187996;28;20042;-77
2022/08/11 01:17:40;;;;;;;12.85;5.47;;;;;;;;;;6192453;28;20050;-78
2022/08/11 01:21:00;;;;;;;11.32;4.97;;;;;;;;;;6194173;28;20104;-77
2022/08/11 01:24:18;;;;;;;10.68;4.78;;;;;;;;;;6187320;28;20026;-78
2022/08/11 01:27:23;;;;;;;11.35;4.78;;;;;;;;;;6183645;28;20026;-78
2022/08/11 01:30:26;;;;;;;11.65;4.60;;;;;;;;;;6191276;28;20024;-78
2022/08/11 01:33:26;;;;;;;13.63;4.22;;;;;;;;;;6199190;28;20072;-75
2022/08/11 01:36:46;;;;;;;18.17;5.33;;;;;;;;;;6208703;28;20536;-76
2022/08/11 01:40:05;;;;;;;11.68;4.35;;;;;;;;;;6193374;28;20295;-78
2022/08/11 01:46:49;;;;;;;11.50;4.78;;;;;;;;;;6197754;28;20031;-77
2022/08/11 01:50:02;;;;;;;11.45;4.88;;;;;;;;;;6198912;28;20030;-78
2022/08/11 01:53:14;;;;;;;16.23;5.07;;;;;;;;;;6193342;28;20030;-78
2022/08/11 01:56:14;;;;;;;;;;;;;;;;;;6194916;28;20053;-78
2022/08/11 01:59:33;;;;;;;7.55;3.58;;;;;;;;;;6199977;28;19953;-77
2022/08/11 02:02:48;;;;;;;11.35;4.55;;;;;;;;;;6188298;28;20019;-76
2022/08/11 02:05:59;;;;;;;10.13;4.90;;;;;;;;;;6200454;28;20014;-76
2022/08/11 02:09:03;;;;;;;8.45;4.32;;;;;;;;;;6200366;28;20493;-77
2022/08/11 02:12:11;;;;;;;8.60;4.15;;;;;;;;;;6189499;28;20694;-76
2022/08/11 02:15:35;;;;;;;9.68;4.70;;;;;;;;;;6175476;28;20023;-76
2022/08/11 02:25:25;;;;;;;7.03;4.15;;;;;;;;;;6193160;28;20399;-77
2022/08/11 02:28:29;;;;;;;7.72;3.90;;;;;;;;;;6180364;28;20094;-76
2022/08/11 02:34:55;;;;;;;9.93;4.75;;;;;;;;;;6190036;28;20034;-77
2022/08/11 02:38:14;;;;;;;11.45;5.63;;;;;;;;;;6181702;28;20054;-77
2022/08/11 02:45:12;;;;;;;10.00;4.60;;;;;;;;;;6197553;28;20125;-77
2022/08/11 02:51:57;;;;;;;10.88;4.95;;;;;;;;;;6184829;28;20015;-77
2022/08/11 02:55:18;;;;;;;12.23;5.57;;;;;;;;;;6195285;28;20049;-77
2022/08/11 02:58:21;;;;;;;8.43;5.00;;;;;;;;;;6188123;28;20046;-77
2022/08/11 03:01:37;;;;;;;12.38;4.75;;;;;;;;;;6190190;28;20113;-77
2022/08/11 03:04:56;;;;;;;13.60;4.85;;;;;;;;;;6179108;28;20033;-77
2022/08/11 03:08:15;;;;;;;11.82;4.28;;;;;;;;;;6196376;28;20023;-78
2022/08/11 03:18:30;;;;;;;9.85;4.78;;;;;;;;;;6196321;28;20109;-77
2022/08/11 03:21:38;;;;;;;8.85;4.03;;;;;;;;;;6197566;28;20129;-77
2022/08/11 03:24:47;;;;;;;14.25;4.50;;;;;;;;;;6196375;28;20481;-76
2022/08/11 03:27:51;;;;;;;8.65;4.35;;;;;;;;;;6194592;28;20022;-76
2022/08/11 03:31:10;;;;;;;8.32;3.88;;;;;;;;;;6192432;28;20023;-77
2022/08/11 03:34:18;;;;;;;7.35;4.05;;;;;;;;;;6207997;28;20120;-77
2022/08/11 03:44:26;;;;;;;8.60;3.97;;;;;;;;;;6188758;28;20035;-77
2022/08/11 03:47:45;;;;;;;7.38;3.70;;;;;;;;;;6176279;28;20102;-77
2022/08/11 03:51:04;;;;;;;8.07;3.15;;;;;;;;;;6195590;28;20053;-77
2022/08/11 03:54:22;;;;;;;8.77;4.35;;;;;;;;;;6183208;28;20025;-77
2022/08/11 03:57:44;;;;;;;9.55;3.63;;;;;;;;;;6184994;28;20046;-77
2022/08/11 04:01:03;;;;;;;12.73;4.68;;;;;;;;;;6190562;28;20026;-77
2022/08/11 04:04:15;;;;;;;7.90;4.70;;;;;;;;;;6191961;28;20414;-77
2022/08/11 04:07:22;;;;;;;13.65;4.38;;;;;;;;;;6187318;28;20164;-77
2022/08/11 04:10:25;;;;;;;9.93;4.78;;;;;;;;;;6180240;28;20029;-77
2022/08/11 04:13:28;;;;;;;17.27;5.55;;;;;;;;;;6194794;28;20026;-77
2022/08/11 04:16:43;;;;;;;12.73;4.22;;;;;;;;;;6185344;28;20026;-77
2022/08/11 04:20:02;;;;;;;13.20;5.57;;;;;;;;;;6196400;28;20030;-77
2022/08/11 04:23:23;;;;;;;13.63;5.40;;;;;;;;;;6190559;28;20103;-77
2022/08/11 04:26:24;;;;;;;9.47;4.23;;;;;;;;;;6191218;28;20022;-77
2022/08/11 04:29:39;;;;;;;7.47;4.28;;;;;;;;;;6197726;28;20544;-77
2022/08/11 04:32:57;;;;;;;10.10;4.60;;;;;;;;;;6189477;28;20367;-76
2022/08/11 04:36:09;;;;;;;9.82;4.45;;;;;;;;;;6192571;28;20022;-76
2022/08/11 04:39:18;;;;;;;11.57;4.82;;;;;;;;;;6183264;28;20072;-76
2022/08/11 04:43:33;;;;;;;11.85;5.60;;;;;;;;;;6188192;28;20014;-76
2022/08/11 04:46:05;;;;;;;8.15;4.18;;;;;;;;;;6181956;28;20058;-77
2022/08/11 05:03:04;;;;;;;11.30;4.53;;;;;;;;;;6187771;28;20450;-77
2022/08/11 05:06:05;;;;;;;12.02;3.85;;;;;;;;;;6184720;28;20030;-77
2022/08/11 05:09:27;;;;;;;9.27;4.07;;;;;;;;;;6190980;28;20546;-78
2022/08/11 05:12:30;;;;;;;9.27;4.50;;;;;;;;;;6183020;28;20034;-77
2022/08/11 05:36:07;;;;;;;11.87;4.80;;;;;;;;;;6190995;28;20117;-77
2022/08/11 05:59:17;;;;;;;11.10;6.28;;;;;;;;;;6183217;28;20070;-77
2022/08/11 06:02:18;;;;;;;15.65;5.15;;;;;;;;;;6189339;28;20026;-78
2022/08/11 06:05:19;;;;;;;10.90;5.38;;;;;;;;;;6191502;28;20023;-77
2022/08/11 06:08:26;;;;;;;15.00;5.77;;;;;;;;;;6190920;28;20050;-77
2022/08/11 06:11:28;;;;;;;10.75;5.28;;;;;;;;;;6206198;28;20289;-77
2022/08/11 06:14:29;;;;;;;13.90;5.50;;;;;;;;;;6192947;28;20022;-77
2022/08/11 06:17:30;;;;;;;9.65;5.05;;;;;;;;;;6196438;28;20034;-78
2022/08/11 06:20:35;;;;;;;12.73;5.43;;;;;;;;;;6193370;28;20015;-77
2022/08/11 06:23:36;;;;;;;10.07;4.43;;;;;;;;;;6193130;28;20133;-76
2022/08/11 06:26:38;;;;;;;6.43;3.63;;;;;;;;;;6199876;28;20022;-78
2022/08/11 06:29:44;;;;;;;7.75;3.53;;;;;;;;;;6198884;28;20434;-77
2022/08/11 06:32:45;;;;;;;9.40;4.00;;;;;;;;;;6197599;28;20014;-77
2022/08/11 06:35:50;;;;;;;8.20;3.72;;;;;;;;;;6196180;28;20080;-77
2022/08/11 06:39:09;;;;;;;6.55;3.15;;;;;;;;;;6189331;28;20033;-77
2022/08/11 06:42:13;;;;;;;7.38;3.28;;;;;;;;;;6198309;28;20398;-76
2022/08/11 06:45:28;;;;;;;10.98;4.18;;;;;;;;;;6196094;28;20076;-77
2022/08/11 06:48:30;;;;;;;6.80;3.22;;;;;;;;;;6191594;28;20033;-77
2022/08/11 06:51:33;;;;;;;4.47;3.15;;;;;;;;;;6187898;28;20015;-77
2022/08/11 06:54:40;;;;;;;5.75;3.08;;;;;;;;;;6198552;28;20022;-78
2022/08/11 07:01:10;;;;;;;7.78;3.13;;;;;;;;;;6200535;28;20038;-77
2022/08/11 07:04:12;;;;;;;8.60;3.33;;;;;;;;;;6199004;28;20033;-76
2022/08/11 07:17:14;;;;;;;3.03;2.17;;;;;;;;;;6201258;28;20030;-77
2022/08/11 07:30:15;;;;;;;4.35;2.50;;;;;;;;;;6196892;28;20062;-76
2022/08/11 07:33:25;;;;;;;6.93;2.10;;;;;;;;;;6193781;28;20110;-76
2022/08/11 07:36:27;;;;;;;6.50;2.35;;;;;;;;;;6202878;28;20532;-76
2022/08/11 07:39:31;;;;;;;4.43;2.03;;;;;;;;;;6183365;28;20097;-76
2022/08/11 07:42:36;;;;;;;5.95;2.67;;;;;;;;;;6194025;28;20467;-76
2022/08/11 07:52:29;;;;;;;4.72;2.05;;;;;;;;;;6202371;28;20390;-77
2022/08/11 07:55:30;;;;;;;2.33;1.63;;;;;;;;;;6193908;28;20057;-76
2022/08/11 08:18:32;;;;;;;6.05;2.40;;;;;;;;;;6198843;28;20027;-77
2022/08/11 08:21:33;;;;;;;4.68;2.10;;;;;;;;;;6198774;28;20053;-77
2022/08/11 08:24:33;;;;;;;;;;;;;;;;;;6198736;28;20097;-78
2022/08/11 08:27:37;;;;;;;4.07;2.10;;;;;;;;;;6199813;28;20325;-77
2022/08/11 08:30:46;;;;;;;4.45;2.30;;;;;;;;;;6195828;28;20153;-77
2022/08/11 08:33:47;;;;;;;6.90;1.90;;;;;;;;;;6198290;28;20025;-77
2022/08/11 08:36:48;;;;;;;6.40;2.22;;;;;;;;;;6193641;28;20475;-78
2022/08/11 08:39:49;;;;;;;3.42;1.60;;;;;;;;;;6197302;28;20627;-78
2022/08/11 08:42:55;;;;;;;2.53;1.40;;;;;;;;;;6193860;28;20076;-78
2022/08/11 08:45:55;;;;;;;1.75;1.23;;;;;;;;;;6192986;28;20042;-78
2022/08/11 08:48:58;;;;;;;5.07;1.83;;;;;;;;;;6195939;28;20128;-78
2022/08/11 08:52:01;;;;;;;4.15;1.90;;;;;;;;;;6193786;28;20101;-78
2022/08/11 08:55:03;;;;;;;3.83;2.33;;;;;;;;;;6194315;28;20006;-77
2022/08/11 08:58:03;;;;;;;7.20;2.33;;;;;;;;;;6195345;28;20573;-76
2022/08/11 09:01:04;;;;;;;6.03;2.33;;;;;;;;;;6198519;28;20065;-77
2022/08/11 09:04:08;;;;;;;3.72;2.03;;;;;;;;;;6191826;28;20265;-79
2022/08/11 09:07:13;;;;;;;4.97;2.20;;;;;;;;;;6197992;28;20069;-78
2022/08/11 09:10:16;;;;;;;5.50;2.35;;;;;;;;;;6195075;28;20018;-77
2022/08/11 09:13:16;;;;;;;8.75;2.50;;;;;;;;;;6188047;28;20022;-78
2022/08/11 09:16:17;;;;;;;4.85;2.50;;;;;;;;;;6185272;28;20165;-78
2022/08/11 09:19:19;;;;;;;3.60;2.10;;;;;;;;;;6207316;28;20022;-78
2022/08/11 09:28:59;;;;;;;5.32;2.78;;;;;;;;;;6190223;28;20034;-77
2022/08/11 09:31:59;;;;;;;7.57;2.55;;;;;;;;;;6191286;28;20026;-77
2022/08/11 09:35:00;;;;;;;3.30;2.03;;;;;;;;;;6190590;28;20092;-78
2022/08/11 09:41:20;;;;;;;5.50;2.03;;;;;;;;;;6188243;28;20374;-77
2022/08/11 09:47:41;;;;;;;5.72;1.75;;;;;;;;;;6197258;28;20066;-77
2022/08/11 09:50:43;;;;;;;4.78;2.25;;;;;;;;;;6182986;28;20035;-76
2022/08/11 09:53:44;;;;;;;5.15;2.10;;;;;;;;;;6199994;28;20037;-76
2022/08/11 10:00:08;;;;;;;4.40;2.38;;;;;;;;;;6193869;28;20026;-78
2022/08/11 10:03:11;;;;;;;5.45;1.98;;;;;;;;;;6199172;28;20149;-78
2022/08/11 10:09:49;;;;;;;2.00;1.60;;;;;;;;;;6191832;28;20894;-78
2022/08/11 10:12:50;;;;;;;3.97;2.50;;;;;;;;;;6196382;28;20030;-78
2022/08/11 10:15:53;;;;;;;3.92;1.50;;;;;;;;;;6197126;28;20026;-78
2022/08/11 10:18:54;;;;;;;8.90;1.63;;;;;;;;;;6197465;28;20129;-77
2022/08/11 10:28:46;;;;;;;6.07;2.28;;;;;;;;;;6190771;28;20034;-78
2022/08/11 10:35:08;;;;;;;6.30;1.90;;;;;;;;;;6191034;28;20038;-78
2022/08/11 10:38:08;;;;;;;3.20;1.80;;;;;;;;;;6193908;28;20018;-79
2022/08/11 10:44:28;;;;;;;6.00;2.60;;;;;;;;;;6196342;28;20534;-79
2022/08/11 10:47:35;;;;;;;2.85;1.75;;;;;;;;;;6195178;28;20052;-78
2022/08/11 11:00:34;;;;;;;4.20;2.10;;;;;;;;;;6190835;28;20038;-79
2022/08/11 11:03:35;;;;;;;2.60;1.55;;;;;;;;;;6195331;28;20010;-79
2022/08/11 11:06:55;;;;;;;6.60;1.48;;;;;;;;;;6186246;28;20045;-79
2022/08/11 11:10:03;;;;;;;5.00;1.20;;;;;;;;;;6190422;28;20039;-79
2022/08/11 11:19:43;;;;;;;2.95;1.30;;;;;;;;;;6175781;28;20034;-79
2022/08/11 11:22:47;;;;;;;5.80;2.40;;;;;;;;;;6198657;28;20505;-79
2022/08/11 11:26:06;;;;;;;8.73;1.65;;;;;;;;;;6196519;28;20037;-78
2022/08/11 11:29:15;;;;;;;3.10;1.13;;;;;;;;;;6191144;28;20026;-79
2022/08/11 11:32:15;;;;;;;1.80;1.02;;;;;;;;;;6190293;28;20023;-78
2022/08/11 11:35:15;;;;;;;1.65;1.17;;;;;;;;;;6185526;28;20074;-78
2022/08/11 11:38:16;;;;;;;3.35;0.80;;;;;;;;;;6195686;28;20398;-79
2022/08/11 11:41:25;;;;;;;3.35;1.33;;;;;;;;;;6184540;28;20074;-79
2022/08/11 11:44:27;;;;;;;4.60;1.63;;;;;;;;;;6190910;28;20037;-78
2022/08/11 11:47:27;;;;;;;5.10;2.40;;;;;;;;;;6190938;28;20011;-78
2022/08/11 11:50:35;;;;;;;4.50;2.05;;;;;;;;;;6199538;28;20031;-78
2022/08/11 11:53:36;;;;;;;6.88;1.40;;;;;;;;;;6200537;28;20360;-78
2022/08/11 11:56:36;;;;;;;1.03;0.97;;;;;;;;;;6198722;28;20039;-78
2022/08/11 12:02:57;;;;;;;2.95;1.40;;;;;;;;;;6194236;28;20026;-77
2022/08/11 12:05:57;;;;;;;3.97;1.25;;;;;;;;;;6193562;28;20646;-77
2022/08/11 12:08:58;;;;;;;3.37;1.00;;;;;;;;;;6193953;28;20030;-76
2022/08/11 12:15:18;;;;;;;6.65;1.25;;;;;;;;;;6191237;28;20437;-78
2022/08/11 12:18:18;;;;;;;1.52;1.00;;;;;;;;;;6192339;28;20041;-78
2022/08/11 12:21:22;;;;;;;2.13;1.00;;;;;;;;;;6191694;28;20080;-77
2022/08/11 12:27:42;;;;;;;2.22;1.15;;;;;;;;;;6192744;28;20026;-78
2022/08/11 12:30:46;;;;;;;2.33;1.00;;;;;;;;;;6193106;28;20061;-77
2022/08/11 12:33:46;;;;;;;1.70;0.85;;;;;;;;;;6192941;28;20025;-78
2022/08/11 12:36:46;;;;;;;;;;;;;;;;;;6190939;28;20026;-78
2022/08/11 12:46:34;;;;;;;2.40;0.90;;;;;;;;;;6196015;28;20581;-78
2022/08/11 12:52:55;;;;;;;2.30;1.50;;;;;;;;;;6194723;28;20038;-78
2022/08/11 13:06:02;;;;;;;3.75;1.33;;;;;;;;;;6185869;28;20498;-77
2022/08/11 13:09:02;;;;;;;1.73;1.08;;;;;;;;;;6193852;28;20030;-78
2022/08/11 13:15:23;;;;;;;6.07;2.22;;;;;;;;;;6191762;28;20034;-79
2022/08/11 13:18:23;;;;;;;5.28;1.13;;;;;;;;;;6191905;28;20031;-77
2022/08/11 13:21:25;;;;;;;4.20;1.00;;;;;;;;;;6186653;28;20092;-78
2022/08/11 13:24:27;;;;;;;3.17;1.05;;;;;;;;;;6198562;28;20054;-78
2022/08/11 13:27:27;;;;;;;0.82;0.70;;;;;;;;;;6196703;28;20014;-78
2022/08/11 13:33:50;;;;;;;0.75;0.68;;;;;;;;;;6197912;28;20019;-78
2022/08/11 13:36:51;;;;;;;2.67;1.15;;;;;;;;;;6191672;28;20029;-77
2022/08/11 13:39:51;;;;;;;51.08;6.45;;;;;;;;;;6198403;28;20113;-77
2022/08/11 13:42:51;;;;;;;;;;;;;;;;;;6195185;28;20368;-77
2022/08/11 13:46:17;;;;;;;21.75;3.08;;;;;;;;;;6194250;28;20302;-76
2022/08/11 13:49:15;;;;;;;15.50;3.77;;;;;;;;;;6198651;28;20508;-79
2022/08/11 13:52:16;;;;;;;6.00;1.30;;;;;;;;;;6198990;28;20017;-78
2022/08/11 13:55:21;;;;;;;4.65;1.50;;;;;;;;;;6198147;28;20046;-78
2022/08/11 13:58:22;;;;;;;4.90;2.00;;;;;;;;;;6198023;28;20038;-77
2022/08/11 14:01:25;;;;;;;4.73;1.77;;;;;;;;;;6191261;28;20037;-76
2022/08/11 14:04:29;;;;;;;7.35;1.73;;;;;;;;;;6198751;28;20032;-77
2022/08/11 14:07:33;;;;;;;6.30;1.90;;;;;;;;;;6196464;28;20025;-76
2022/08/11 14:10:36;;;;;;;8.48;1.83;;;;;;;;;;6189959;28;20486;-76
2022/08/11 14:13:39;;;;;;;9.77;2.10;;;;;;;;;;6192143;28;20037;-76
2022/08/11 14:16:41;;;;;;;5.88;2.05;;;;;;;;;;6187958;28;20062;-76
2022/08/11 14:19:43;;;;;;;4.47;2.13;;;;;;;;;;6184262;28;20101;-76
2022/08/11 14:22:45;;;;;;;6.40;2.40;;;;;;;;;;6190048;28;20010;-76
2022/08/11 14:29:11;;;;;;;6.43;2.53;;;;;;;;;;6193598;28;20046;-76
2022/08/11 14:32:13;;;;;;;9.93;2.15;;;;;;;;;;6191671;28;20092;-76
2022/08/11 14:35:13;;;;;;;6.10;3.08;;;;;;;;;;6187081;28;20030;-77
2022/08/11 14:38:14;;;;;;;6.90;2.50;;;;;;;;;;6192625;28;20033;-77
2022/08/11 14:47:54;;;;;;;8.00;2.95;;;;;;;;;;6194038;28;20042;-76
2022/08/11 14:50:55;;;;;;;3.92;1.95;;;;;;;;;;6192071;28;20038;-77
2022/08/11 14:56:34;;;;;;;3.67;2.13;;;;;;;;;;6193712;28;20038;-77
2022/08/11 14:57:17;;;;;;;5.35;2.72;;;;;;;;;;6190987;28;20125;-77
2022/08/11 15:00:17;;;;;;;4.43;2.57;;;;;;;;;;6195089;28;20037;-77
2022/08/11 15:03:17;;;;;;;4.90;2.67;;;;;;;;;;6192167;28;20430;-77
2022/08/11 15:06:18;;;;;;;7.47;2.60;;;;;;;;;;6196926;28;20110;-77
2022/08/11 15:09:18;;;;;;;5.13;2.33;;;;;;;;;;6195560;28;20129;-77
2022/08/11 15:12:18;;;;;;;3.10;2.20;;;;;;;;;;6196642;28;20394;-77
2022/08/11 15:18:39;;;;;;;6.63;2.60;;;;;;;;;;6198335;28;20034;-77
2022/08/11 15:24:59;;;;;;;8.30;3.75;;;;;;;;;;6191060;28;20800;-75
2022/08/11 15:38:00;;;;;;;7.57;3.15;;;;;;;;;;6192827;28;20034;-74
2022/08/11 15:47:43;;;;;;;3.10;1.73;;;;;;;;;;6191869;28;20038;-75
2022/08/11 15:50:46;;;;;;;4.60;1.88;;;;;;;;;;6207819;28;20138;-75
2022/08/11 15:53:49;;;;;;;5.95;2.25;;;;;;;;;;6191169;28;20026;-75
2022/08/11 15:56:51;;;;;;;9.23;2.78;;;;;;;;;;6187195;28;20049;-75
2022/08/11 16:06:32;;;;;;;15.40;4.28;;;;;;;;;;6200151;28;20039;-74
2022/08/11 16:09:32;;;;;;;;;;;;;;;;;;6190407;28;20026;-74
2022/08/11 16:16:16;;;;;;;10.43;4.18;;;;;;;;;;6193683;28;20050;-75
2022/08/11 16:19:17;;;;;;;7.50;3.22;;;;;;;;;;6187341;28;20034;-75
2022/08/11 16:22:20;;;;;;;8.68;3.10;;;;;;;;;;6191400;28;20018;-75
2022/08/11 16:25:22;;;;;;;10.02;3.20;;;;;;;;;;6187349;28;20027;-75
2022/08/11 16:28:23;;;;;;;6.18;2.95;;;;;;;;;;6192149;28;20022;-75
2022/08/11 16:31:24;;;;;;;9.52;2.90;;;;;;;;;;6190449;28;20025;-75
2022/08/11 16:41:05;;;;;;;9.60;3.80;;;;;;;;;;6192220;28;20054;-75
2022/08/11 16:47:26;;;;;;;4.63;2.22;;;;;;;;;;6193073;28;20030;-75
2022/08/11 16:50:28;;;;;;;3.75;1.63;;;;;;;;;;6185468;28;20025;-75
2022/08/11 16:53:29;;;;;;;3.88;2.03;;;;;;;;;;6198367;28;20042;-78
2022/08/11 16:56:32;;;;;;;3.63;2.00;;;;;;;;;;6188129;28;20125;-78
2022/08/11 16:59:34;;;;;;;2.53;1.73;;;;;;;;;;6185720;28;20023;-77
2022/08/11 17:16:06;;;;;;;2.33;1.60;;;;;;;;;;6189767;28;20157;-77
2022/08/11 17:19:17;;;;;;;4.93;2.10;;;;;;;;;;6190527;28;20022;-77
2022/08/11 17:25:36;;;;;;;4.63;2.30;;;;;;;;;;6190528;28;20026;-78
2022/08/11 17:28:37;;;;;;;3.60;1.57;;;;;;;;;;6183416;28;20033;-78
2022/08/11 17:38:30;;;;;;;3.53;2.20;;;;;;;;;;6194870;28;20026;-78
2022/08/11 17:48:24;;;;;;;6.75;2.65;;;;;;;;;;6190533;28;20026;-78
2022/08/11 18:01:22;;;;;;;5.70;2.40;;;;;;;;;;6190587;28;20026;-78
2022/08/11 18:04:24;;;;;;;4.88;2.10;;;;;;;;;;6191629;28;20117;-78
